sensor_id;sensor_type;location;lat;lon;timestamp;P1;durP1;ratioP1;P2;durP2;ratioP2
53263;SDS011;39153;52.680;6.172;2022-09-09T00:00:18;10.88;;;7.20;;
53263;SDS011;39153;52.680;6.172;2022-09-09T00:02:47;10.02;;;6.70;;
53263;SDS011;39153;52.680;6.172;2022-09-09T00:05:31;10.95;;;6.90;;
53263;SDS011;39153;52.680;6.172;2022-09-09T00:08:15;7.57;;;6.10;;
53263;SDS011;39153;52.680;6.172;2022-09-09T00:10:45;8.77;;;7.00;;
53263;SDS011;39153;52.680;6.172;2022-09-09T00:13:19;11.52;;;6.78;;
53263;SDS011;39153;52.680;6.172;2022-09-09T00:18:59;9.80;;;7.32;;
53263;SDS011;39153;52.680;6.172;2022-09-09T00:21:46;10.63;;;6.97;;
53263;SDS011;39153;52.680;6.172;2022-09-09T00:32:39;11.85;;;8.23;;
53263;SDS011;39153;52.680;6.172;2022-09-09T00:37:58;9.25;;;8.07;;
53263;SDS011;39153;52.680;6.172;2022-09-09T00:40:32;13.30;;;9.27;;
53263;SDS011;39153;52.680;6.172;2022-09-09T00:43:14;14.02;;;9.55;;
53263;SDS011;39153;52.680;6.172;2022-09-09T00:49:00;10.82;;;9.35;;
53263;SDS011;39153;52.680;6.172;2022-09-09T00:55:03;13.45;;;9.73;;
53263;SDS011;39153;52.680;6.172;2022-09-09T00:57:31;13.48;;;8.98;;
53263;SDS011;39153;52.680;6.172;2022-09-09T01:11:09;11.90;;;8.35;;
53263;SDS011;39153;52.680;6.172;2022-09-09T01:13:41;12.30;;;8.13;;
53263;SDS011;39153;52.680;6.172;2022-09-09T01:16:11;12.48;;;8.23;;
53263;SDS011;39153;52.680;6.172;2022-09-09T01:18:43;13.65;;;7.88;;
53263;SDS011;39153;52.680;6.172;2022-09-09T01:26:51;11.00;;;7.57;;
53263;SDS011;39153;52.680;6.172;2022-09-09T01:29:21;11.07;;;7.30;;
53263;SDS011;39153;52.680;6.172;2022-09-09T01:31:55;11.98;;;6.47;;
53263;SDS011;39153;52.680;6.172;2022-09-09T01:34:27;11.30;;;7.45;;
53263;SDS011;39153;52.680;6.172;2022-09-09T01:37:16;8.93;;;7.47;;
53263;SDS011;39153;52.680;6.172;2022-09-09T01:39:42;8.77;;;6.88;;
53263;SDS011;39153;52.680;6.172;2022-09-09T01:42:09;11.23;;;7.55;;
53263;SDS011;39153;52.680;6.172;2022-09-09T01:44:40;11.85;;;7.05;;
53263;SDS011;39153;52.680;6.172;2022-09-09T01:47:05;9.23;;;7.07;;
53263;SDS011;39153;52.680;6.172;2022-09-09T01:49:31;14.13;;;7.30;;
53263;SDS011;39153;52.680;6.172;2022-09-09T01:52:00;12.13;;;7.40;;
53263;SDS011;39153;52.680;6.172;2022-09-09T01:54:27;10.25;;;6.88;;
53263;SDS011;39153;52.680;6.172;2022-09-09T01:57:01;9.95;;;6.40;;
53263;SDS011;39153;52.680;6.172;2022-09-09T01:59:58;10.27;;;6.15;;
53263;SDS011;39153;52.680;6.172;2022-09-09T02:02:34;9.52;;;6.40;;
53263;SDS011;39153;52.680;6.172;2022-09-09T02:07:42;11.70;;;7.03;;
53263;SDS011;39153;52.680;6.172;2022-09-09T02:10:16;10.10;;;6.90;;
53263;SDS011;39153;52.680;6.172;2022-09-09T02:12:55;12.88;;;7.35;;
53263;SDS011;39153;52.680;6.172;2022-09-09T02:15:30;9.65;;;7.00;;
53263;SDS011;39153;52.680;6.172;2022-09-09T02:18:00;13.00;;;8.18;;
53263;SDS011;39153;52.680;6.172;2022-09-09T02:20:31;10.15;;;7.82;;
53263;SDS011;39153;52.680;6.172;2022-09-09T02:22:58;10.63;;;8.15;;
53263;SDS011;39153;52.680;6.172;2022-09-09T02:25:25;11.23;;;7.60;;
53263;SDS011;39153;52.680;6.172;2022-09-09T02:27:54;11.40;;;7.72;;
53263;SDS011;39153;52.680;6.172;2022-09-09T02:30:23;9.18;;;7.80;;
53263;SDS011;39153;52.680;6.172;2022-09-09T02:32:49;11.82;;;8.10;;
53263;SDS011;39153;52.680;6.172;2022-09-09T02:35:19;13.85;;;8.02;;
53263;SDS011;39153;52.680;6.172;2022-09-09T02:37:47;12.50;;;8.10;;
53263;SDS011;39153;52.680;6.172;2022-09-09T02:40:15;11.95;;;8.55;;
53263;SDS011;39153;52.680;6.172;2022-09-09T02:42:42;10.20;;;7.50;;
53263;SDS011;39153;52.680;6.172;2022-09-09T02:45:09;10.43;;;7.85;;
53263;SDS011;39153;52.680;6.172;2022-09-09T02:53:45;10.32;;;7.75;;
53263;SDS011;39153;52.680;6.172;2022-09-09T02:56:30;9.88;;;7.72;;
53263;SDS011;39153;52.680;6.172;2022-09-09T02:59:03;10.48;;;6.93;;
53263;SDS011;39153;52.680;6.172;2022-09-09T03:01:29;10.95;;;7.22;;
53263;SDS011;39153;52.680;6.172;2022-09-09T03:03:56;9.20;;;7.18;;
53263;SDS011;39153;52.680;6.172;2022-09-09T03:06:22;8.85;;;7.40;;
53263;SDS011;39153;52.680;6.172;2022-09-09T03:08:48;11.25;;;7.88;;
53263;SDS011;39153;52.680;6.172;2022-09-09T03:11:15;8.93;;;6.93;;
53263;SDS011;39153;52.680;6.172;2022-09-09T03:13:41;9.02;;;6.88;;
53263;SDS011;39153;52.680;6.172;2022-09-09T03:16:07;9.38;;;6.97;;
53263;SDS011;39153;52.680;6.172;2022-09-09T03:18:32;11.77;;;7.35;;
53263;SDS011;39153;52.680;6.172;2022-09-09T03:20:59;9.73;;;7.07;;
53263;SDS011;39153;52.680;6.172;2022-09-09T03:23:25;9.48;;;6.93;;
53263;SDS011;39153;52.680;6.172;2022-09-09T03:25:51;8.80;;;6.95;;
53263;SDS011;39153;52.680;6.172;2022-09-09T03:28:18;9.25;;;6.85;;
53263;SDS011;39153;52.680;6.172;2022-09-09T03:30:45;9.32;;;7.20;;
53263;SDS011;39153;52.680;6.172;2022-09-09T03:33:11;10.02;;;6.97;;
53263;SDS011;39153;52.680;6.172;2022-09-09T03:35:37;10.13;;;6.97;;
53263;SDS011;39153;52.680;6.172;2022-09-09T03:38:04;10.57;;;7.05;;
53263;SDS011;39153;52.680;6.172;2022-09-09T03:40:30;9.73;;;7.50;;
53263;SDS011;39153;52.680;6.172;2022-09-09T03:42:56;8.98;;;6.93;;
53263;SDS011;39153;52.680;6.172;2022-09-09T03:45:21;11.10;;;7.55;;
53263;SDS011;39153;52.680;6.172;2022-09-09T03:47:47;10.48;;;7.63;;
53263;SDS011;39153;52.680;6.172;2022-09-09T03:50:12;9.10;;;7.00;;
53263;SDS011;39153;52.680;6.172;2022-09-09T03:52:39;8.75;;;7.03;;
53263;SDS011;39153;52.680;6.172;2022-09-09T03:55:06;10.05;;;7.82;;
53263;SDS011;39153;52.680;6.172;2022-09-09T03:57:34;10.98;;;7.40;;
53263;SDS011;39153;52.680;6.172;2022-09-09T04:00:04;12.02;;;8.15;;
53263;SDS011;39153;52.680;6.172;2022-09-09T04:02:32;10.73;;;7.88;;
53263;SDS011;39153;52.680;6.172;2022-09-09T04:04:58;12.50;;;8.15;;
53263;SDS011;39153;52.680;6.172;2022-09-09T04:07:24;12.07;;;7.80;;
53263;SDS011;39153;52.680;6.172;2022-09-09T04:09:52;11.23;;;7.30;;
53263;SDS011;39153;52.680;6.172;2022-09-09T04:12:19;10.93;;;8.30;;
53263;SDS011;39153;52.680;6.172;2022-09-09T04:14:46;11.48;;;8.48;;
53263;SDS011;39153;52.680;6.172;2022-09-09T04:17:11;12.02;;;8.38;;
53263;SDS011;39153;52.680;6.172;2022-09-09T04:19:37;10.15;;;8.07;;
53263;SDS011;39153;52.680;6.172;2022-09-09T04:22:03;10.00;;;7.70;;
53263;SDS011;39153;52.680;6.172;2022-09-09T04:24:29;10.50;;;7.85;;
53263;SDS011;39153;52.680;6.172;2022-09-09T04:26:54;12.75;;;8.60;;
53263;SDS011;39153;52.680;6.172;2022-09-09T04:29:20;11.10;;;8.15;;
53263;SDS011;39153;52.680;6.172;2022-09-09T04:31:46;11.20;;;8.27;;
53263;SDS011;39153;52.680;6.172;2022-09-09T04:34:11;11.90;;;8.50;;
53263;SDS011;39153;52.680;6.172;2022-09-09T04:36:37;13.23;;;8.75;;
53263;SDS011;39153;52.680;6.172;2022-09-09T04:39:04;12.40;;;8.93;;
53263;SDS011;39153;52.680;6.172;2022-09-09T04:41:30;14.43;;;9.13;;
53263;SDS011;39153;52.680;6.172;2022-09-09T04:43:56;15.43;;;10.30;;
53263;SDS011;39153;52.680;6.172;2022-09-09T04:46:22;15.07;;;9.88;;
53263;SDS011;39153;52.680;6.172;2022-09-09T04:48:49;15.15;;;10.35;;
53263;SDS011;39153;52.680;6.172;2022-09-09T04:51:15;14.25;;;10.73;;
53263;SDS011;39153;52.680;6.172;2022-09-09T04:53:41;15.93;;;11.23;;
53263;SDS011;39153;52.680;6.172;2022-09-09T04:56:08;15.18;;;11.65;;
53263;SDS011;39153;52.680;6.172;2022-09-09T04:58:36;17.35;;;10.95;;
53263;SDS011;39153;52.680;6.172;2022-09-09T05:01:03;14.50;;;10.98;;
53263;SDS011;39153;52.680;6.172;2022-09-09T05:03:30;14.18;;;10.95;;
53263;SDS011;39153;52.680;6.172;2022-09-09T05:06:01;15.75;;;11.60;;
53263;SDS011;39153;52.680;6.172;2022-09-09T05:08:37;16.05;;;12.25;;
53263;SDS011;39153;52.680;6.172;2022-09-09T05:11:12;12.98;;;10.95;;
53263;SDS011;39153;52.680;6.172;2022-09-09T05:13:43;14.65;;;11.50;;
53263;SDS011;39153;52.680;6.172;2022-09-09T05:16:09;14.55;;;11.38;;
53263;SDS011;39153;52.680;6.172;2022-09-09T05:18:36;17.90;;;11.95;;
53263;SDS011;39153;52.680;6.172;2022-09-09T05:21:06;15.90;;;11.65;;
53263;SDS011;39153;52.680;6.172;2022-09-09T05:23:32;14.98;;;12.75;;
53263;SDS011;39153;52.680;6.172;2022-09-09T05:25:59;16.95;;;11.93;;
53263;SDS011;39153;52.680;6.172;2022-09-09T05:28:25;14.60;;;11.75;;
53263;SDS011;39153;52.680;6.172;2022-09-09T05:30:55;15.50;;;11.80;;
53263;SDS011;39153;52.680;6.172;2022-09-09T05:35:58;13.90;;;11.25;;
53263;SDS011;39153;52.680;6.172;2022-09-09T05:38:32;13.80;;;10.80;;
53263;SDS011;39153;52.680;6.172;2022-09-09T05:40:59;13.77;;;11.43;;
53263;SDS011;39153;52.680;6.172;2022-09-09T05:43:27;14.30;;;11.07;;
53263;SDS011;39153;52.680;6.172;2022-09-09T05:46:00;12.07;;;10.20;;
53263;SDS011;39153;52.680;6.172;2022-09-09T05:48:29;12.90;;;10.63;;
53263;SDS011;39153;52.680;6.172;2022-09-09T05:50:56;13.13;;;10.60;;
53263;SDS011;39153;52.680;6.172;2022-09-09T05:53:22;13.30;;;10.23;;
53263;SDS011;39153;52.680;6.172;2022-09-09T05:55:47;12.95;;;10.65;;
53263;SDS011;39153;52.680;6.172;2022-09-09T05:58:13;13.70;;;9.50;;
53263;SDS011;39153;52.680;6.172;2022-09-09T06:00:42;12.23;;;10.25;;
53263;SDS011;39153;52.680;6.172;2022-09-09T06:03:11;12.40;;;10.50;;
53263;SDS011;39153;52.680;6.172;2022-09-09T06:05:37;13.13;;;9.80;;
53263;SDS011;39153;52.680;6.172;2022-09-09T06:08:03;13.55;;;10.23;;
53263;SDS011;39153;52.680;6.172;2022-09-09T06:10:29;12.90;;;9.70;;
53263;SDS011;39153;52.680;6.172;2022-09-09T06:12:55;12.05;;;9.63;;
53263;SDS011;39153;52.680;6.172;2022-09-09T06:15:20;11.40;;;9.63;;
53263;SDS011;39153;52.680;6.172;2022-09-09T06:17:46;13.90;;;9.57;;
53263;SDS011;39153;52.680;6.172;2022-09-09T06:20:12;11.77;;;9.48;;
53263;SDS011;39153;52.680;6.172;2022-09-09T06:22:39;10.88;;;9.63;;
53263;SDS011;39153;52.680;6.172;2022-09-09T06:25:06;13.63;;;10.15;;
53263;SDS011;39153;52.680;6.172;2022-09-09T06:27:33;12.98;;;9.63;;
53263;SDS011;39153;52.680;6.172;2022-09-09T06:29:59;13.57;;;10.40;;
53263;SDS011;39153;52.680;6.172;2022-09-09T06:32:24;12.18;;;9.80;;
53263;SDS011;39153;52.680;6.172;2022-09-09T06:34:51;12.70;;;10.50;;
53263;SDS011;39153;52.680;6.172;2022-09-09T06:37:17;13.65;;;10.07;;
53263;SDS011;39153;52.680;6.172;2022-09-09T06:39:43;12.18;;;9.00;;
53263;SDS011;39153;52.680;6.172;2022-09-09T06:42:09;10.45;;;8.80;;
53263;SDS011;39153;52.680;6.172;2022-09-09T06:44:35;13.73;;;9.15;;
53263;SDS011;39153;52.680;6.172;2022-09-09T06:47:01;13.57;;;9.93;;
53263;SDS011;39153;52.680;6.172;2022-09-09T06:49:27;13.82;;;9.40;;
53263;SDS011;39153;52.680;6.172;2022-09-09T06:51:52;14.32;;;8.82;;
53263;SDS011;39153;52.680;6.172;2022-09-09T06:54:19;12.55;;;9.68;;
53263;SDS011;39153;52.680;6.172;2022-09-09T06:56:45;12.93;;;10.38;;
53263;SDS011;39153;52.680;6.172;2022-09-09T06:59:11;12.57;;;9.48;;
53263;SDS011;39153;52.680;6.172;2022-09-09T07:01:38;16.30;;;10.38;;
53263;SDS011;39153;52.680;6.172;2022-09-09T07:04:16;14.00;;;8.63;;
53263;SDS011;39153;52.680;6.172;2022-09-09T07:06:44;13.13;;;8.98;;
53263;SDS011;39153;52.680;6.172;2022-09-09T07:09:12;14.13;;;8.80;;
53263;SDS011;39153;52.680;6.172;2022-09-09T07:11:40;9.80;;;8.45;;
53263;SDS011;39153;52.680;6.172;2022-09-09T07:14:16;12.75;;;8.50;;
53263;SDS011;39153;52.680;6.172;2022-09-09T07:16:42;15.45;;;8.25;;
53263;SDS011;39153;52.680;6.172;2022-09-09T07:19:09;13.40;;;8.52;;
53263;SDS011;39153;52.680;6.172;2022-09-09T07:21:35;13.63;;;8.23;;
53263;SDS011;39153;52.680;6.172;2022-09-09T07:24:01;12.43;;;8.02;;
53263;SDS011;39153;52.680;6.172;2022-09-09T07:26:28;9.55;;;7.43;;
53263;SDS011;39153;52.680;6.172;2022-09-09T07:28:56;13.90;;;8.35;;
53263;SDS011;39153;52.680;6.172;2022-09-09T07:31:32;14.77;;;8.00;;
53263;SDS011;39153;52.680;6.172;2022-09-09T07:34:00;12.93;;;8.02;;
53263;SDS011;39153;52.680;6.172;2022-09-09T07:36:28;12.02;;;8.35;;
53263;SDS011;39153;52.680;6.172;2022-09-09T07:38:55;11.68;;;8.07;;
53263;SDS011;39153;52.680;6.172;2022-09-09T07:41:30;11.73;;;8.25;;
53263;SDS011;39153;52.680;6.172;2022-09-09T07:44:06;13.73;;;8.95;;
53263;SDS011;39153;52.680;6.172;2022-09-09T07:46:33;11.85;;;8.40;;
53263;SDS011;39153;52.680;6.172;2022-09-09T07:48:59;13.13;;;8.00;;
53263;SDS011;39153;52.680;6.172;2022-09-09T07:51:27;11.73;;;8.20;;
53263;SDS011;39153;52.680;6.172;2022-09-09T07:53:55;13.85;;;8.73;;
53263;SDS011;39153;52.680;6.172;2022-09-09T07:56:23;12.23;;;7.55;;
53263;SDS011;39153;52.680;6.172;2022-09-09T07:58:51;16.05;;;8.15;;
53263;SDS011;39153;52.680;6.172;2022-09-09T08:01:31;13.23;;;8.50;;
53263;SDS011;39153;52.680;6.172;2022-09-09T08:04:03;12.80;;;8.13;;
53263;SDS011;39153;52.680;6.172;2022-09-09T08:06:32;14.38;;;7.65;;
53263;SDS011;39153;52.680;6.172;2022-09-09T08:09:00;12.98;;;7.43;;
53263;SDS011;39153;52.680;6.172;2022-09-09T08:11:26;13.05;;;6.85;;
53263;SDS011;39153;52.680;6.172;2022-09-09T08:13:54;12.80;;;7.43;;
53263;SDS011;39153;52.680;6.172;2022-09-09T08:16:24;11.20;;;6.88;;
53263;SDS011;39153;52.680;6.172;2022-09-09T08:18:52;13.27;;;7.07;;
53263;SDS011;39153;52.680;6.172;2022-09-09T08:21:23;11.00;;;6.60;;
53263;SDS011;39153;52.680;6.172;2022-09-09T08:23:52;12.73;;;6.55;;
53263;SDS011;39153;52.680;6.172;2022-09-09T08:26:22;14.30;;;6.18;;
53263;SDS011;39153;52.680;6.172;2022-09-09T08:28:57;13.05;;;6.20;;
53263;SDS011;39153;52.680;6.172;2022-09-09T08:33:52;9.45;;;6.00;;
53263;SDS011;39153;52.680;6.172;2022-09-09T08:36:19;13.73;;;5.40;;
53263;SDS011;39153;52.680;6.172;2022-09-09T08:38:47;13.85;;;5.93;;
53263;SDS011;39153;52.680;6.172;2022-09-09T08:47:32;11.63;;;5.38;;
53263;SDS011;39153;52.680;6.172;2022-09-09T08:52:16;11.20;;;4.75;;
53263;SDS011;39153;52.680;6.172;2022-09-09T08:55:37;11.52;;;5.18;;
53263;SDS011;39153;52.680;6.172;2022-09-09T08:57:42;10.30;;;4.70;;
53263;SDS011;39153;52.680;6.172;2022-09-09T09:00:10;9.13;;;4.95;;
53263;SDS011;39153;52.680;6.172;2022-09-09T09:05:46;10.30;;;4.72;;
53263;SDS011;39153;52.680;6.172;2022-09-09T09:08:20;8.88;;;4.13;;
53263;SDS011;39153;52.680;6.172;2022-09-09T09:10:56;10.32;;;3.75;;
53263;SDS011;39153;52.680;6.172;2022-09-09T09:18:51;11.77;;;3.70;;
53263;SDS011;39153;52.680;6.172;2022-09-09T09:21:22;11.50;;;3.80;;
53263;SDS011;39153;52.680;6.172;2022-09-09T09:24:00;8.20;;;3.08;;
53263;SDS011;39153;52.680;6.172;2022-09-09T09:26:29;11.88;;;3.38;;
53263;SDS011;39153;52.680;6.172;2022-09-09T09:28:58;8.15;;;3.20;;
53263;SDS011;39153;52.680;6.172;2022-09-09T09:31:24;8.90;;;3.00;;
53263;SDS011;39153;52.680;6.172;2022-09-09T09:33:54;8.55;;;3.10;;
53263;SDS011;39153;52.680;6.172;2022-09-09T09:36:33;12.63;;;3.55;;
53263;SDS011;39153;52.680;6.172;2022-09-09T09:39:21;14.52;;;3.30;;
53263;SDS011;39153;52.680;6.172;2022-09-09T09:41:54;11.27;;;2.90;;
53263;SDS011;39153;52.680;6.172;2022-09-09T09:46:50;8.40;;;2.65;;
53263;SDS011;39153;52.680;6.172;2022-09-09T09:49:16;13.60;;;2.97;;
53263;SDS011;39153;52.680;6.172;2022-09-09T09:51:42;7.68;;;2.47;;
53263;SDS011;39153;52.680;6.172;2022-09-09T09:54:28;9.15;;;2.47;;
53263;SDS011;39153;52.680;6.172;2022-09-09T09:56:55;9.73;;;2.63;;
53263;SDS011;39153;52.680;6.172;2022-09-09T10:01:53;8.48;;;2.72;;
53263;SDS011;39153;52.680;6.172;2022-09-09T10:04:20;9.80;;;2.50;;
53263;SDS011;39153;52.680;6.172;2022-09-09T10:06:48;8.50;;;2.85;;
53263;SDS011;39153;52.680;6.172;2022-09-09T10:11:51;7.45;;;2.85;;
53263;SDS011;39153;52.680;6.172;2022-09-09T10:23:12;6.65;;;2.60;;
53263;SDS011;39153;52.680;6.172;2022-09-09T10:25:57;7.85;;;2.63;;
53263;SDS011;39153;52.680;6.172;2022-09-09T10:31:22;8.60;;;2.40;;
53263;SDS011;39153;52.680;6.172;2022-09-09T10:36:39;12.48;;;2.78;;
53263;SDS011;39153;52.680;6.172;2022-09-09T10:42:07;12.68;;;2.60;;
53263;SDS011;39153;52.680;6.172;2022-09-09T10:55:40;6.82;;;2.58;;
53263;SDS011;39153;52.680;6.172;2022-09-09T10:58:13;10.35;;;2.67;;
53263;SDS011;39153;52.680;6.172;2022-09-09T11:00:54;7.78;;;2.10;;
53263;SDS011;39153;52.680;6.172;2022-09-09T11:03:27;7.43;;;2.45;;
53263;SDS011;39153;52.680;6.172;2022-09-09T11:06:00;9.60;;;2.60;;
53263;SDS011;39153;52.680;6.172;2022-09-09T11:08:30;6.70;;;1.85;;
53263;SDS011;39153;52.680;6.172;2022-09-09T11:16:34;8.15;;;2.50;;
53263;SDS011;39153;52.680;6.172;2022-09-09T11:22:07;8.18;;;2.40;;
53263;SDS011;39153;52.680;6.172;2022-09-09T11:24:40;7.47;;;2.35;;
53263;SDS011;39153;52.680;6.172;2022-09-09T11:27:15;10.20;;;2.50;;
53263;SDS011;39153;52.680;6.172;2022-09-09T11:41:04;12.15;;;2.08;;
53263;SDS011;39153;52.680;6.172;2022-09-09T11:43:39;15.50;;;4.20;;
53263;SDS011;39153;52.680;6.172;2022-09-09T11:46:34;16.17;;;4.88;;
53263;SDS011;39153;52.680;6.172;2022-09-09T11:49:04;10.07;;;3.08;;
53263;SDS011;39153;52.680;6.172;2022-09-09T11:51:32;10.35;;;2.50;;
53263;SDS011;39153;52.680;6.172;2022-09-09T11:54:01;6.03;;;1.70;;
53263;SDS011;39153;52.680;6.172;2022-09-09T11:56:47;9.07;;;2.75;;
53263;SDS011;39153;52.680;6.172;2022-09-09T11:59:49;7.68;;;2.10;;
53263;SDS011;39153;52.680;6.172;2022-09-09T12:02:19;6.00;;;1.73;;
53263;SDS011;39153;52.680;6.172;2022-09-09T12:07:26;9.57;;;1.73;;
53263;SDS011;39153;52.680;6.172;2022-09-09T12:10:04;6.18;;;1.80;;
53263;SDS011;39153;52.680;6.172;2022-09-09T12:12:43;7.10;;;2.28;;
53263;SDS011;39153;52.680;6.172;2022-09-09T12:17:47;6.28;;;1.83;;
53263;SDS011;39153;52.680;6.172;2022-09-09T12:28:15;7.47;;;1.75;;
53263;SDS011;39153;52.680;6.172;2022-09-09T12:33:12;7.55;;;1.85;;
53263;SDS011;39153;52.680;6.172;2022-09-09T12:35:41;6.53;;;1.60;;
53263;SDS011;39153;52.680;6.172;2022-09-09T12:38:15;6.47;;;1.63;;
53263;SDS011;39153;52.680;6.172;2022-09-09T12:40:54;8.85;;;1.50;;
53263;SDS011;39153;52.680;6.172;2022-09-09T12:43:22;6.43;;;1.70;;
53263;SDS011;39153;52.680;6.172;2022-09-09T12:45:50;6.00;;;1.63;;
53263;SDS011;39153;52.680;6.172;2022-09-09T12:48:22;5.70;;;1.70;;
53263;SDS011;39153;52.680;6.172;2022-09-09T12:51:01;5.88;;;1.70;;
53263;SDS011;39153;52.680;6.172;2022-09-09T12:53:35;5.43;;;1.83;;
53263;SDS011;39153;52.680;6.172;2022-09-09T12:56:05;5.88;;;1.70;;
53263;SDS011;39153;52.680;6.172;2022-09-09T12:58:33;7.47;;;2.00;;
53263;SDS011;39153;52.680;6.172;2022-09-09T13:01:01;6.88;;;1.90;;
53263;SDS011;39153;52.680;6.172;2022-09-09T13:03:32;6.90;;;1.95;;
53263;SDS011;39153;52.680;6.172;2022-09-09T13:06:18;10.40;;;2.22;;
53263;SDS011;39153;52.680;6.172;2022-09-09T13:08:44;7.22;;;2.60;;
53263;SDS011;39153;52.680;6.172;2022-09-09T13:11:13;6.07;;;2.20;;
53263;SDS011;39153;52.680;6.172;2022-09-09T13:14:03;8.60;;;2.97;;
53263;SDS011;39153;52.680;6.172;2022-09-09T13:16:32;9.02;;;2.20;;
53263;SDS011;39153;52.680;6.172;2022-09-09T13:19:00;7.55;;;2.13;;
53263;SDS011;39153;52.680;6.172;2022-09-09T13:21:35;6.45;;;2.13;;
53263;SDS011;39153;52.680;6.172;2022-09-09T13:24:03;6.18;;;2.40;;
53263;SDS011;39153;52.680;6.172;2022-09-09T13:26:58;7.88;;;2.72;;
53263;SDS011;39153;52.680;6.172;2022-09-09T13:29:29;9.77;;;2.28;;
53263;SDS011;39153;52.680;6.172;2022-09-09T13:32:06;4.65;;;1.70;;
53263;SDS011;39153;52.680;6.172;2022-09-09T13:34:49;5.57;;;2.33;;
53263;SDS011;39153;52.680;6.172;2022-09-09T13:37:22;5.95;;;1.90;;
53263;SDS011;39153;52.680;6.172;2022-09-09T13:39:58;5.38;;;2.10;;
53263;SDS011;39153;52.680;6.172;2022-09-09T13:42:26;5.60;;;1.85;;
53263;SDS011;39153;52.680;6.172;2022-09-09T13:44:54;4.57;;;1.38;;
53263;SDS011;39153;52.680;6.172;2022-09-09T13:47:22;3.22;;;1.17;;
53263;SDS011;39153;52.680;6.172;2022-09-09T13:52:46;3.83;;;1.05;;
53263;SDS011;39153;52.680;6.172;2022-09-09T13:55:14;2.45;;;0.90;;
53263;SDS011;39153;52.680;6.172;2022-09-09T13:57:49;5.15;;;1.10;;
53263;SDS011;39153;52.680;6.172;2022-09-09T14:00:19;3.28;;;0.90;;
53263;SDS011;39153;52.680;6.172;2022-09-09T14:02:45;5.00;;;1.35;;
53263;SDS011;39153;52.680;6.172;2022-09-09T14:05:12;5.15;;;1.30;;
53263;SDS011;39153;52.680;6.172;2022-09-09T14:07:38;4.57;;;1.15;;
53263;SDS011;39153;52.680;6.172;2022-09-09T14:10:06;4.68;;;1.30;;
53263;SDS011;39153;52.680;6.172;2022-09-09T14:12:32;4.97;;;1.35;;
53263;SDS011;39153;52.680;6.172;2022-09-09T14:14:58;6.90;;;1.30;;
53263;SDS011;39153;52.680;6.172;2022-09-09T14:17:25;3.30;;;1.05;;
53263;SDS011;39153;52.680;6.172;2022-09-09T14:19:54;3.17;;;1.10;;
53263;SDS011;39153;52.680;6.172;2022-09-09T14:22:21;5.10;;;1.27;;
53263;SDS011;39153;52.680;6.172;2022-09-09T14:24:47;5.38;;;1.35;;
53263;SDS011;39153;52.680;6.172;2022-09-09T14:27:12;3.63;;;1.10;;
53263;SDS011;39153;52.680;6.172;2022-09-09T14:29:38;6.82;;;1.50;;
53263;SDS011;39153;52.680;6.172;2022-09-09T14:32:04;5.97;;;0.98;;
53263;SDS011;39153;52.680;6.172;2022-09-09T14:34:30;5.90;;;1.10;;
53263;SDS011;39153;52.680;6.172;2022-09-09T14:36:57;4.55;;;1.20;;
53263;SDS011;39153;52.680;6.172;2022-09-09T14:39:23;3.50;;;1.15;;
53263;SDS011;39153;52.680;6.172;2022-09-09T14:41:49;2.97;;;1.30;;
53263;SDS011;39153;52.680;6.172;2022-09-09T14:44:14;3.97;;;1.20;;
53263;SDS011;39153;52.680;6.172;2022-09-09T14:46:41;3.45;;;1.10;;
53263;SDS011;39153;52.680;6.172;2022-09-09T14:49:08;4.30;;;1.38;;
53263;SDS011;39153;52.680;6.172;2022-09-09T14:51:35;5.50;;;1.52;;
53263;SDS011;39153;52.680;6.172;2022-09-09T14:54:01;5.05;;;1.42;;
53263;SDS011;39153;52.680;6.172;2022-09-09T14:56:28;4.78;;;1.50;;
53263;SDS011;39153;52.680;6.172;2022-09-09T14:58:56;3.80;;;1.30;;
53263;SDS011;39153;52.680;6.172;2022-09-09T15:01:23;5.10;;;1.20;;
53263;SDS011;39153;52.680;6.172;2022-09-09T15:03:56;4.95;;;1.58;;
53263;SDS011;39153;52.680;6.172;2022-09-09T15:06:23;4.68;;;1.20;;
53263;SDS011;39153;52.680;6.172;2022-09-09T15:08:50;4.32;;;1.40;;
53263;SDS011;39153;52.680;6.172;2022-09-09T15:11:18;6.15;;;1.73;;
53263;SDS011;39153;52.680;6.172;2022-09-09T15:13:45;4.72;;;1.70;;
53263;SDS011;39153;52.680;6.172;2022-09-09T15:16:15;5.13;;;1.30;;
53263;SDS011;39153;52.680;6.172;2022-09-09T15:18:42;5.88;;;1.58;;
53263;SDS011;39153;52.680;6.172;2022-09-09T15:21:14;4.82;;;1.33;;
53263;SDS011;39153;52.680;6.172;2022-09-09T15:23:41;6.93;;;1.55;;
53263;SDS011;39153;52.680;6.172;2022-09-09T15:26:08;3.65;;;1.40;;
53263;SDS011;39153;52.680;6.172;2022-09-09T15:28:35;3.22;;;1.08;;
53263;SDS011;39153;52.680;6.172;2022-09-09T15:31:06;3.38;;;1.23;;
53263;SDS011;39153;52.680;6.172;2022-09-09T15:33:36;4.38;;;1.48;;
53263;SDS011;39153;52.680;6.172;2022-09-09T15:38:48;4.35;;;1.55;;
53263;SDS011;39153;52.680;6.172;2022-09-09T15:41:15;5.43;;;1.52;;
53263;SDS011;39153;52.680;6.172;2022-09-09T15:43:45;7.05;;;1.83;;
53263;SDS011;39153;52.680;6.172;2022-09-09T15:48:54;5.18;;;1.88;;
53263;SDS011;39153;52.680;6.172;2022-09-09T15:51:22;6.72;;;1.60;;
53263;SDS011;39153;52.680;6.172;2022-09-09T15:53:48;4.97;;;1.80;;
53263;SDS011;39153;52.680;6.172;2022-09-09T15:56:18;4.97;;;1.60;;
53263;SDS011;39153;52.680;6.172;2022-09-09T15:58:44;4.97;;;1.88;;
53263;SDS011;39153;52.680;6.172;2022-09-09T16:01:10;4.55;;;1.90;;
53263;SDS011;39153;52.680;6.172;2022-09-09T16:03:41;5.18;;;1.63;;
53263;SDS011;39153;52.680;6.172;2022-09-09T16:06:08;6.05;;;2.00;;
53263;SDS011;39153;52.680;6.172;2022-09-09T16:08:35;5.65;;;2.10;;
53263;SDS011;39153;52.680;6.172;2022-09-09T16:11:20;5.57;;;1.80;;
53263;SDS011;39153;52.680;6.172;2022-09-09T16:13:48;8.20;;;2.20;;
53263;SDS011;39153;52.680;6.172;2022-09-09T16:16:16;5.38;;;2.08;;
53263;SDS011;39153;52.680;6.172;2022-09-09T16:18:44;6.47;;;1.52;;
53263;SDS011;39153;52.680;6.172;2022-09-09T16:21:47;5.75;;;1.70;;
53263;SDS011;39153;52.680;6.172;2022-09-09T16:24:07;6.30;;;1.90;;
53263;SDS011;39153;52.680;6.172;2022-09-09T16:26:35;9.65;;;2.10;;
53263;SDS011;39153;52.680;6.172;2022-09-09T16:29:02;5.07;;;1.58;;
53263;SDS011;39153;52.680;6.172;2022-09-09T16:31:28;5.60;;;1.55;;
53263;SDS011;39153;52.680;6.172;2022-09-09T16:33:55;6.82;;;1.60;;
53263;SDS011;39153;52.680;6.172;2022-09-09T16:36:23;2.80;;;1.45;;
53263;SDS011;39153;52.680;6.172;2022-09-09T16:39:00;5.93;;;1.55;;
53263;SDS011;39153;52.680;6.172;2022-09-09T16:41:30;6.50;;;1.83;;
53263;SDS011;39153;52.680;6.172;2022-09-09T16:44:00;6.55;;;1.80;;
53263;SDS011;39153;52.680;6.172;2022-09-09T16:46:28;4.93;;;1.70;;
53263;SDS011;39153;52.680;6.172;2022-09-09T16:48:55;5.07;;;1.45;;
53263;SDS011;39153;52.680;6.172;2022-09-09T16:51:26;5.32;;;1.60;;
53263;SDS011;39153;52.680;6.172;2022-09-09T16:53:54;4.38;;;1.40;;
53263;SDS011;39153;52.680;6.172;2022-09-09T16:56:21;4.85;;;1.70;;
53263;SDS011;39153;52.680;6.172;2022-09-09T16:58:57;4.72;;;1.85;;
53263;SDS011;39153;52.680;6.172;2022-09-09T17:01:28;4.38;;;1.80;;
53263;SDS011;39153;52.680;6.172;2022-09-09T17:03:57;4.35;;;1.52;;
53263;SDS011;39153;52.680;6.172;2022-09-09T17:06:25;5.82;;;1.63;;
53263;SDS011;39153;52.680;6.172;2022-09-09T17:08:58;5.78;;;1.90;;
53263;SDS011;39153;52.680;6.172;2022-09-09T17:11:26;3.83;;;1.52;;
53263;SDS011;39153;52.680;6.172;2022-09-09T17:13:53;5.97;;;1.80;;
53263;SDS011;39153;52.680;6.172;2022-09-09T17:16:20;7.53;;;1.90;;
53263;SDS011;39153;52.680;6.172;2022-09-09T17:18:47;5.82;;;2.15;;
53263;SDS011;39153;52.680;6.172;2022-09-09T17:21:15;5.57;;;1.90;;
53263;SDS011;39153;52.680;6.172;2022-09-09T17:23:43;7.72;;;1.92;;